sensor_id;sensor_type;location;lat;lon;timestamp;P1;durP1;ratioP1;P2;durP2;ratioP2
16770;SDS011;8503;52.472;13.344;2022-09-04T00:00:52;4.80;;;1.50;;
16770;SDS011;8503;52.472;13.344;2022-09-04T00:02:21;5.40;;;1.58;;
16770;SDS011;8503;52.472;13.344;2022-09-04T00:03:54;4.15;;;1.63;;
16770;SDS011;8503;52.472;13.344;2022-09-04T00:05:23;1.50;;;1.10;;
16770;SDS011;8503;52.472;13.344;2022-09-04T00:06:53;1.92;;;1.17;;
16770;SDS011;8503;52.472;13.344;2022-09-04T00:08:26;1.27;;;0.98;;
16770;SDS011;8503;52.472;13.344;2022-09-04T00:10:03;2.72;;;1.20;;
16770;SDS011;8503;52.472;13.344;2022-09-04T00:11:35;1.73;;;1.20;;
16770;SDS011;8503;52.472;13.344;2022-09-04T00:13:07;4.55;;;1.10;;
16770;SDS011;8503;52.472;13.344;2022-09-04T00:14:34;1.95;;;1.05;;
16770;SDS011;8503;52.472;13.344;2022-09-04T00:16:04;2.42;;;1.10;;
16770;SDS011;8503;52.472;13.344;2022-09-04T00:17:31;3.15;;;1.45;;
16770;SDS011;8503;52.472;13.344;2022-09-04T00:18:59;4.20;;;1.40;;
16770;SDS011;8503;52.472;13.344;2022-09-04T00:20:29;2.33;;;1.00;;
16770;SDS011;8503;52.472;13.344;2022-09-04T00:21:56;3.60;;;1.25;;
16770;SDS011;8503;52.472;13.344;2022-09-04T00:23:20;4.15;;;1.30;;
16770;SDS011;8503;52.472;13.344;2022-09-04T00:24:50;4.93;;;1.38;;
16770;SDS011;8503;52.472;13.344;2022-09-04T00:26:19;3.28;;;1.30;;
16770;SDS011;8503;52.472;13.344;2022-09-04T00:27:49;3.40;;;1.05;;
16770;SDS011;8503;52.472;13.344;2022-09-04T00:29:28;2.35;;;1.15;;
16770;SDS011;8503;52.472;13.344;2022-09-04T00:31:00;1.40;;;1.15;;
16770;SDS011;8503;52.472;13.344;2022-09-04T00:32:32;1.60;;;0.98;;
16770;SDS011;8503;52.472;13.344;2022-09-04T00:34:01;2.50;;;1.50;;
16770;SDS011;8503;52.472;13.344;2022-09-04T00:35:30;2.20;;;1.20;;
16770;SDS011;8503;52.472;13.344;2022-09-04T00:36:54;1.95;;;1.02;;
16770;SDS011;8503;52.472;13.344;2022-09-04T00:38:26;1.27;;;1.08;;
16770;SDS011;8503;52.472;13.344;2022-09-04T00:39:59;5.53;;;1.15;;
16770;SDS011;8503;52.472;13.344;2022-09-04T00:41:27;1.80;;;1.20;;
16770;SDS011;8503;52.472;13.344;2022-09-04T00:42:56;3.97;;;1.10;;
16770;SDS011;8503;52.472;13.344;2022-09-04T00:44:39;2.67;;;1.30;;
16770;SDS011;8503;52.472;13.344;2022-09-04T00:46:19;5.10;;;1.70;;
16770;SDS011;8503;52.472;13.344;2022-09-04T00:48:07;5.57;;;1.30;;
16770;SDS011;8503;52.472;13.344;2022-09-04T00:49:59;4.07;;;0.95;;
16770;SDS011;8503;52.472;13.344;2022-09-04T00:51:32;0.98;;;0.88;;
16770;SDS011;8503;52.472;13.344;2022-09-04T00:53:07;1.25;;;1.05;;
16770;SDS011;8503;52.472;13.344;2022-09-04T00:54:42;4.57;;;1.33;;
16770;SDS011;8503;52.472;13.344;2022-09-04T00:56:13;1.98;;;1.33;;
16770;SDS011;8503;52.472;13.344;2022-09-04T00:59:37;3.50;;;1.00;;
16770;SDS011;8503;52.472;13.344;2022-09-04T01:01:09;3.00;;;1.20;;
16770;SDS011;8503;52.472;13.344;2022-09-04T01:04:32;2.75;;;1.10;;
16770;SDS011;8503;52.472;13.344;2022-09-04T01:06:07;2.58;;;1.17;;
16770;SDS011;8503;52.472;13.344;2022-09-04T01:07:43;2.67;;;1.48;;
16770;SDS011;8503;52.472;13.344;2022-09-04T01:09:20;2.55;;;1.20;;
16770;SDS011;8503;52.472;13.344;2022-09-04T01:10:57;1.65;;;1.10;;
16770;SDS011;8503;52.472;13.344;2022-09-04T01:12:28;1.30;;;0.95;;
16770;SDS011;8503;52.472;13.344;2022-09-04T01:13:57;4.30;;;1.08;;
16770;SDS011;8503;52.472;13.344;2022-09-04T01:15:28;7.38;;;1.50;;
16770;SDS011;8503;52.472;13.344;2022-09-04T01:16:58;1.48;;;1.08;;
16770;SDS011;8503;52.472;13.344;2022-09-04T01:18:29;2.55;;;1.38;;
16770;SDS011;8503;52.472;13.344;2022-09-04T01:20:00;1.20;;;1.10;;
16770;SDS011;8503;52.472;13.344;2022-09-04T01:21:49;4.88;;;1.20;;
16770;SDS011;8503;52.472;13.344;2022-09-04T01:25:16;2.42;;;1.00;;
16770;SDS011;8503;52.472;13.344;2022-09-04T01:26:54;1.63;;;0.80;;
16770;SDS011;8503;52.472;13.344;2022-09-04T01:28:25;1.20;;;0.90;;
16770;SDS011;8503;52.472;13.344;2022-09-04T01:29:52;1.42;;;1.08;;
16770;SDS011;8503;52.472;13.344;2022-09-04T01:31:22;2.65;;;1.02;;
16770;SDS011;8503;52.472;13.344;2022-09-04T01:32:52;3.47;;;1.00;;
16770;SDS011;8503;52.472;13.344;2022-09-04T01:34:26;2.85;;;1.27;;
16770;SDS011;8503;52.472;13.344;2022-09-04T01:35:58;2.28;;;1.20;;
16770;SDS011;8503;52.472;13.344;2022-09-04T01:37:28;3.33;;;1.25;;
16770;SDS011;8503;52.472;13.344;2022-09-04T01:38:56;6.85;;;1.30;;
16770;SDS011;8503;52.472;13.344;2022-09-04T01:40:25;5.70;;;1.65;;
16770;SDS011;8503;52.472;13.344;2022-09-04T01:41:59;2.13;;;1.02;;
16770;SDS011;8503;52.472;13.344;2022-09-04T01:43:24;8.07;;;1.27;;
16770;SDS011;8503;52.472;13.344;2022-09-04T01:44:47;1.70;;;0.90;;
16770;SDS011;8503;52.472;13.344;2022-09-04T01:47:51;3.22;;;1.10;;
16770;SDS011;8503;52.472;13.344;2022-09-04T01:49:22;3.40;;;1.05;;
16770;SDS011;8503;52.472;13.344;2022-09-04T01:50:49;1.95;;;1.20;;
16770;SDS011;8503;52.472;13.344;2022-09-04T01:52:29;2.90;;;1.27;;
16770;SDS011;8503;52.472;13.344;2022-09-04T01:54:01;3.42;;;1.02;;
16770;SDS011;8503;52.472;13.344;2022-09-04T01:55:34;1.73;;;1.00;;
16770;SDS011;8503;52.472;13.344;2022-09-04T01:57:09;0.77;;;0.77;;
16770;SDS011;8503;52.472;13.344;2022-09-04T01:58:37;1.95;;;1.10;;
16770;SDS011;8503;52.472;13.344;2022-09-04T02:00:07;1.92;;;1.02;;
16770;SDS011;8503;52.472;13.344;2022-09-04T02:01:31;2.05;;;1.20;;
16770;SDS011;8503;52.472;13.344;2022-09-04T02:03:02;3.35;;;1.20;;
16770;SDS011;8503;52.472;13.344;2022-09-04T02:04:30;4.38;;;1.33;;
16770;SDS011;8503;52.472;13.344;2022-09-04T02:06:00;1.65;;;0.98;;
16770;SDS011;8503;52.472;13.344;2022-09-04T02:07:26;3.80;;;0.90;;
16770;SDS011;8503;52.472;13.344;2022-09-04T02:10:42;1.05;;;0.90;;
16770;SDS011;8503;52.472;13.344;2022-09-04T02:12:14;4.07;;;1.08;;
16770;SDS011;8503;52.472;13.344;2022-09-04T02:13:42;4.78;;;1.58;;
16770;SDS011;8503;52.472;13.344;2022-09-04T02:15:27;7.15;;;1.00;;
16770;SDS011;8503;52.472;13.344;2022-09-04T02:16:57;5.10;;;1.10;;
16770;SDS011;8503;52.472;13.344;2022-09-04T02:18:30;1.92;;;0.90;;
16770;SDS011;8503;52.472;13.344;2022-09-04T02:20:08;1.60;;;1.17;;
16770;SDS011;8503;52.472;13.344;2022-09-04T02:21:39;1.40;;;0.80;;
16770;SDS011;8503;52.472;13.344;2022-09-04T02:23:08;1.95;;;1.10;;
16770;SDS011;8503;52.472;13.344;2022-09-04T02:24:34;1.30;;;0.70;;
16770;SDS011;8503;52.472;13.344;2022-09-04T02:26:02;3.60;;;1.27;;
16770;SDS011;8503;52.472;13.344;2022-09-04T02:27:31;1.92;;;1.27;;
16770;SDS011;8503;52.472;13.344;2022-09-04T02:29:02;1.85;;;1.10;;
16770;SDS011;8503;52.472;13.344;2022-09-04T02:30:30;1.10;;;0.90;;
16770;SDS011;8503;52.472;13.344;2022-09-04T02:31:58;2.97;;;0.60;;
16770;SDS011;8503;52.472;13.344;2022-09-04T02:33:31;2.45;;;0.95;;
16770;SDS011;8503;52.472;13.344;2022-09-04T02:35:00;1.02;;;0.90;;
16770;SDS011;8503;52.472;13.344;2022-09-04T02:36:32;2.00;;;1.17;;
16770;SDS011;8503;52.472;13.344;2022-09-04T02:38:02;2.17;;;1.00;;
16770;SDS011;8503;52.472;13.344;2022-09-04T02:39:34;1.42;;;0.98;;
16770;SDS011;8503;52.472;13.344;2022-09-04T02:41:04;2.17;;;1.10;;
16770;SDS011;8503;52.472;13.344;2022-09-04T02:42:36;1.80;;;1.00;;
16770;SDS011;8503;52.472;13.344;2022-09-04T02:45:47;2.72;;;1.15;;
16770;SDS011;8503;52.472;13.344;2022-09-04T02:47:18;2.42;;;1.13;;
16770;SDS011;8503;52.472;13.344;2022-09-04T02:48:53;1.67;;;0.82;;
16770;SDS011;8503;52.472;13.344;2022-09-04T02:50:26;1.55;;;1.10;;
16770;SDS011;8503;52.472;13.344;2022-09-04T02:52:02;1.30;;;1.00;;
16770;SDS011;8503;52.472;13.344;2022-09-04T02:53:36;0.80;;;0.80;;
16770;SDS011;8503;52.472;13.344;2022-09-04T02:55:10;1.58;;;1.00;;
16770;SDS011;8503;52.472;13.344;2022-09-04T02:56:43;2.90;;;1.00;;
16770;SDS011;8503;52.472;13.344;2022-09-04T02:58:16;1.02;;;0.88;;
16770;SDS011;8503;52.472;13.344;2022-09-04T02:59:49;5.10;;;0.82;;
16770;SDS011;8503;52.472;13.344;2022-09-04T03:01:18;2.15;;;0.77;;
16770;SDS011;8503;52.472;13.344;2022-09-04T03:02:47;1.27;;;0.90;;
16770;SDS011;8503;52.472;13.344;2022-09-04T03:04:15;3.08;;;0.80;;
16770;SDS011;8503;52.472;13.344;2022-09-04T03:05:43;3.70;;;1.42;;
16770;SDS011;8503;52.472;13.344;2022-09-04T03:07:12;2.00;;;1.08;;
16770;SDS011;8503;52.472;13.344;2022-09-04T03:08:42;2.17;;;0.95;;
16770;SDS011;8503;52.472;13.344;2022-09-04T03:10:08;2.47;;;0.98;;
16770;SDS011;8503;52.472;13.344;2022-09-04T03:11:34;1.20;;;1.10;;
16770;SDS011;8503;52.472;13.344;2022-09-04T03:13:00;1.00;;;0.80;;
16770;SDS011;8503;52.472;13.344;2022-09-04T03:14:29;1.23;;;0.77;;
16770;SDS011;8503;52.472;13.344;2022-09-04T03:15:56;1.35;;;0.90;;
16770;SDS011;8503;52.472;13.344;2022-09-04T03:17:26;1.27;;;1.08;;
16770;SDS011;8503;52.472;13.344;2022-09-04T03:19:05;2.00;;;0.90;;
16770;SDS011;8503;52.472;13.344;2022-09-04T03:20:38;4.75;;;1.10;;
16770;SDS011;8503;52.472;13.344;2022-09-04T03:22:14;1.08;;;0.90;;
16770;SDS011;8503;52.472;13.344;2022-09-04T03:23:42;1.13;;;1.02;;
16770;SDS011;8503;52.472;13.344;2022-09-04T03:25:24;0.93;;;0.85;;
16770;SDS011;8503;52.472;13.344;2022-09-04T03:27:07;1.73;;;0.80;;
16770;SDS011;8503;52.472;13.344;2022-09-04T03:28:34;1.38;;;0.88;;
16770;SDS011;8503;52.472;13.344;2022-09-04T03:30:08;5.55;;;1.00;;
16770;SDS011;8503;52.472;13.344;2022-09-04T03:31:35;3.10;;;1.10;;
16770;SDS011;8503;52.472;13.344;2022-09-04T03:33:03;2.17;;;0.93;;
16770;SDS011;8503;52.472;13.344;2022-09-04T03:34:32;0.93;;;0.80;;
16770;SDS011;8503;52.472;13.344;2022-09-04T03:36:02;2.05;;;1.05;;
16770;SDS011;8503;52.472;13.344;2022-09-04T03:37:40;2.67;;;1.00;;
16770;SDS011;8503;52.472;13.344;2022-09-04T03:39:17;0.90;;;0.90;;
16770;SDS011;8503;52.472;13.344;2022-09-04T03:40:44;1.08;;;0.95;;
16770;SDS011;8503;52.472;13.344;2022-09-04T03:42:13;2.33;;;0.80;;
16770;SDS011;8503;52.472;13.344;2022-09-04T03:43:45;2.63;;;1.00;;
16770;SDS011;8503;52.472;13.344;2022-09-04T03:45:21;2.72;;;1.00;;
16770;SDS011;8503;52.472;13.344;2022-09-04T03:46:54;0.82;;;0.82;;
16770;SDS011;8503;52.472;13.344;2022-09-04T03:48:25;1.30;;;0.80;;
16770;SDS011;8503;52.472;13.344;2022-09-04T03:49:59;4.22;;;0.90;;
16770;SDS011;8503;52.472;13.344;2022-09-04T03:51:30;0.98;;;0.85;;
16770;SDS011;8503;52.472;13.344;2022-09-04T03:52:59;1.98;;;1.05;;
16770;SDS011;8503;52.472;13.344;2022-09-04T03:54:34;1.17;;;0.88;;
16770;SDS011;8503;52.472;13.344;2022-09-04T03:56:15;1.70;;;1.08;;
16770;SDS011;8503;52.472;13.344;2022-09-04T03:58:01;2.22;;;0.77;;
16770;SDS011;8503;52.472;13.344;2022-09-04T03:59:37;2.10;;;1.20;;
16770;SDS011;8503;52.472;13.344;2022-09-04T04:01:10;2.08;;;0.73;;
16770;SDS011;8503;52.472;13.344;2022-09-04T04:02:53;0.95;;;0.90;;
16770;SDS011;8503;52.472;13.344;2022-09-04T04:04:35;1.42;;;1.05;;
16770;SDS011;8503;52.472;13.344;2022-09-04T04:06:09;2.70;;;1.10;;
16770;SDS011;8503;52.472;13.344;2022-09-04T04:07:40;1.83;;;1.00;;
16770;SDS011;8503;52.472;13.344;2022-09-04T04:09:15;0.63;;;0.63;;
16770;SDS011;8503;52.472;13.344;2022-09-04T04:10:53;1.67;;;0.90;;
16770;SDS011;8503;52.472;13.344;2022-09-04T04:12:25;3.70;;;1.00;;
16770;SDS011;8503;52.472;13.344;2022-09-04T04:14:06;1.95;;;1.08;;
16770;SDS011;8503;52.472;13.344;2022-09-04T04:15:48;1.77;;;1.00;;
16770;SDS011;8503;52.472;13.344;2022-09-04T04:17:34;1.00;;;0.90;;
16770;SDS011;8503;52.472;13.344;2022-09-04T04:19:07;2.38;;;0.93;;
16770;SDS011;8503;52.472;13.344;2022-09-04T04:20:51;2.17;;;1.13;;
16770;SDS011;8503;52.472;13.344;2022-09-04T04:22:28;1.00;;;0.80;;
16770;SDS011;8503;52.472;13.344;2022-09-04T04:25:59;2.17;;;0.93;;
16770;SDS011;8503;52.472;13.344;2022-09-04T04:27:34;0.63;;;0.63;;
16770;SDS011;8503;52.472;13.344;2022-09-04T04:29:18;2.15;;;0.82;;
16770;SDS011;8503;52.472;13.344;2022-09-04T04:31:07;1.23;;;1.00;;
16770;SDS011;8503;52.472;13.344;2022-09-04T04:34:29;1.13;;;0.93;;
16770;SDS011;8503;52.472;13.344;2022-09-04T04:35:59;3.97;;;0.88;;
16770;SDS011;8503;52.472;13.344;2022-09-04T04:37:30;0.90;;;0.63;;
16770;SDS011;8503;52.472;13.344;2022-09-04T04:39:10;1.33;;;0.90;;
16770;SDS011;8503;52.472;13.344;2022-09-04T04:40:55;1.58;;;0.82;;
16770;SDS011;8503;52.472;13.344;2022-09-04T04:42:27;1.83;;;0.77;;
16770;SDS011;8503;52.472;13.344;2022-09-04T04:43:58;1.35;;;0.90;;
16770;SDS011;8503;52.472;13.344;2022-09-04T04:45:29;2.42;;;1.20;;
16770;SDS011;8503;52.472;13.344;2022-09-04T04:47:11;2.17;;;1.10;;
16770;SDS011;8503;52.472;13.344;2022-09-04T04:48:55;1.35;;;0.70;;
16770;SDS011;8503;52.472;13.344;2022-09-04T04:50:37;1.20;;;0.75;;
16770;SDS011;8503;52.472;13.344;2022-09-04T04:53:53;2.35;;;0.77;;
16770;SDS011;8503;52.472;13.344;2022-09-04T04:55:19;1.10;;;0.95;;
16770;SDS011;8503;52.472;13.344;2022-09-04T04:56:52;6.07;;;0.93;;
16770;SDS011;8503;52.472;13.344;2022-09-04T05:00:09;0.93;;;0.93;;
16770;SDS011;8503;52.472;13.344;2022-09-04T05:01:40;1.55;;;0.93;;
16770;SDS011;8503;52.472;13.344;2022-09-04T05:03:08;2.55;;;0.98;;
16770;SDS011;8503;52.472;13.344;2022-09-04T05:04:40;0.77;;;0.60;;
16770;SDS011;8503;52.472;13.344;2022-09-04T05:06:09;1.20;;;0.98;;
16770;SDS011;8503;52.472;13.344;2022-09-04T05:07:39;1.58;;;1.00;;
16770;SDS011;8503;52.472;13.344;2022-09-04T05:09:08;2.47;;;1.17;;
16770;SDS011;8503;52.472;13.344;2022-09-04T05:10:35;3.88;;;1.15;;
16770;SDS011;8503;52.472;13.344;2022-09-04T05:12:02;2.45;;;1.20;;
16770;SDS011;8503;52.472;13.344;2022-09-04T05:13:32;2.83;;;1.30;;
16770;SDS011;8503;52.472;13.344;2022-09-04T05:15:02;1.25;;;0.93;;
16770;SDS011;8503;52.472;13.344;2022-09-04T05:16:32;1.30;;;1.00;;
16770;SDS011;8503;52.472;13.344;2022-09-04T05:18:06;5.97;;;0.85;;
16770;SDS011;8503;52.472;13.344;2022-09-04T05:19:34;2.60;;;0.80;;
16770;SDS011;8503;52.472;13.344;2022-09-04T05:21:04;1.75;;;1.20;;
16770;SDS011;8503;52.472;13.344;2022-09-04T05:22:33;1.27;;;1.00;;
16770;SDS011;8503;52.472;13.344;2022-09-04T05:23:58;0.88;;;0.80;;
16770;SDS011;8503;52.472;13.344;2022-09-04T05:25:26;1.40;;;0.98;;
16770;SDS011;8503;52.472;13.344;2022-09-04T05:26:58;5.55;;;1.00;;
16770;SDS011;8503;52.472;13.344;2022-09-04T05:28:25;1.38;;;0.93;;
16770;SDS011;8503;52.472;13.344;2022-09-04T05:29:54;1.65;;;1.10;;
16770;SDS011;8503;52.472;13.344;2022-09-04T05:31:22;1.10;;;1.00;;
16770;SDS011;8503;52.472;13.344;2022-09-04T05:32:59;1.52;;;0.82;;
16770;SDS011;8503;52.472;13.344;2022-09-04T05:34:30;1.70;;;1.00;;
16770;SDS011;8503;52.472;13.344;2022-09-04T05:35:58;1.67;;;1.00;;
16770;SDS011;8503;52.472;13.344;2022-09-04T05:37:29;1.20;;;0.75;;
16770;SDS011;8503;52.472;13.344;2022-09-04T05:38:57;1.27;;;0.93;;
16770;SDS011;8503;52.472;13.344;2022-09-04T05:40:28;2.50;;;1.00;;
16770;SDS011;8503;52.472;13.344;2022-09-04T05:41:58;1.70;;;1.17;;
16770;SDS011;8503;52.472;13.344;2022-09-04T05:43:54;3.80;;;1.60;;
16770;SDS011;8503;52.472;13.344;2022-09-04T05:45:24;1.33;;;1.10;;
16770;SDS011;8503;52.472;13.344;2022-09-04T05:46:52;0.80;;;0.80;;
16770;SDS011;8503;52.472;13.344;2022-09-04T05:48:24;3.55;;;1.25;;
16770;SDS011;8503;52.472;13.344;2022-09-04T05:49:57;0.98;;;0.60;;
16770;SDS011;8503;52.472;13.344;2022-09-04T05:51:41;1.00;;;0.90;;
16770;SDS011;8503;52.472;13.344;2022-09-04T05:57:03;1.08;;;0.80;;
16770;SDS011;8503;52.472;13.344;2022-09-04T05:58:58;1.98;;;1.02;;
16770;SDS011;8503;52.472;13.344;2022-09-04T06:00:30;4.15;;;1.40;;
16770;SDS011;8503;52.472;13.344;2022-09-04T06:02:05;5.03;;;1.25;;
16770;SDS011;8503;52.472;13.344;2022-09-04T06:03:51;3.22;;;1.10;;
16770;SDS011;8503;52.472;13.344;2022-09-04T06:05:28;2.55;;;1.10;;
16770;SDS011;8503;52.472;13.344;2022-09-04T06:07:01;1.70;;;0.75;;
16770;SDS011;8503;52.472;13.344;2022-09-04T06:08:30;2.45;;;1.15;;
16770;SDS011;8503;52.472;13.344;2022-09-04T06:10:00;4.25;;;1.00;;
16770;SDS011;8503;52.472;13.344;2022-09-04T06:11:35;1.00;;;0.90;;
16770;SDS011;8503;52.472;13.344;2022-09-04T06:15:05;1.25;;;1.10;;
16770;SDS011;8503;52.472;13.344;2022-09-04T06:16:39;2.10;;;1.20;;
16770;SDS011;8503;52.472;13.344;2022-09-04T06:18:12;2.97;;;1.00;;
16770;SDS011;8503;52.472;13.344;2022-09-04T06:19:48;1.10;;;0.98;;
16770;SDS011;8503;52.472;13.344;2022-09-04T06:21:40;2.90;;;1.05;;
16770;SDS011;8503;52.472;13.344;2022-09-04T06:25:31;2.60;;;1.02;;
16770;SDS011;8503;52.472;13.344;2022-09-04T06:27:18;2.50;;;1.35;;
16770;SDS011;8503;52.472;13.344;2022-09-04T06:30:53;3.03;;;1.45;;
16770;SDS011;8503;52.472;13.344;2022-09-04T06:32:24;1.98;;;1.10;;
16770;SDS011;8503;52.472;13.344;2022-09-04T06:33:55;3.30;;;0.98;;
16770;SDS011;8503;52.472;13.344;2022-09-04T06:35:33;2.88;;;1.10;;
16770;SDS011;8503;52.472;13.344;2022-09-04T06:37:10;1.30;;;1.17;;
16770;SDS011;8503;52.472;13.344;2022-09-04T06:38:41;2.42;;;1.33;;
16770;SDS011;8503;52.472;13.344;2022-09-04T06:40:16;3.03;;;1.20;;
16770;SDS011;8503;52.472;13.344;2022-09-04T06:41:58;2.75;;;1.60;;
16770;SDS011;8503;52.472;13.344;2022-09-04T06:43:31;2.58;;;1.20;;
16770;SDS011;8503;52.472;13.344;2022-09-04T06:45:02;1.90;;;1.30;;
16770;SDS011;8503;52.472;13.344;2022-09-04T06:46:34;1.45;;;1.00;;
16770;SDS011;8503;52.472;13.344;2022-09-04T06:48:07;1.60;;;1.20;;
16770;SDS011;8503;52.472;13.344;2022-09-04T06:49:44;2.00;;;1.40;;
16770;SDS011;8503;52.472;13.344;2022-09-04T06:51:21;1.60;;;1.30;;
16770;SDS011;8503;52.472;13.344;2022-09-04T06:52:56;2.30;;;1.30;;
16770;SDS011;8503;52.472;13.344;2022-09-04T06:54:33;2.55;;;1.27;;
16770;SDS011;8503;52.472;13.344;2022-09-04T06:56:11;2.20;;;1.50;;
16770;SDS011;8503;52.472;13.344;2022-09-04T06:57:51;1.88;;;1.33;;
16770;SDS011;8503;52.472;13.344;2022-09-04T06:59:43;1.23;;;1.13;;
16770;SDS011;8503;52.472;13.344;2022-09-04T07:01:14;2.97;;;1.52;;
16770;SDS011;8503;52.472;13.344;2022-09-04T07:02:48;2.15;;;1.40;;
16770;SDS011;8503;52.472;13.344;2022-09-04T07:04:26;3.35;;;1.17;;
16770;SDS011;8503;52.472;13.344;2022-09-04T07:06:14;3.35;;;1.35;;
16770;SDS011;8503;52.472;13.344;2022-09-04T07:07:42;4.53;;;1.70;;
16770;SDS011;8503;52.472;13.344;2022-09-04T07:09:14;1.58;;;1.45;;
16770;SDS011;8503;52.472;13.344;2022-09-04T07:10:41;2.45;;;1.58;;
16770;SDS011;8503;52.472;13.344;2022-09-04T07:14:07;1.45;;;1.30;;
16770;SDS011;8503;52.472;13.344;2022-09-04T07:15:48;1.80;;;1.35;;
16770;SDS011;8503;52.472;13.344;2022-09-04T07:17:26;5.30;;;1.73;;
16770;SDS011;8503;52.472;13.344;2022-09-04T07:18:56;2.15;;;1.33;;
16770;SDS011;8503;52.472;13.344;2022-09-04T07:20:50;1.50;;;1.40;;
16770;SDS011;8503;52.472;13.344;2022-09-04T07:24:10;2.25;;;1.60;;
16770;SDS011;8503;52.472;13.344;2022-09-04T07:25:59;5.55;;;1.50;;
16770;SDS011;8503;52.472;13.344;2022-09-04T07:27:35;7.38;;;1.67;;
16770;SDS011;8503;52.472;13.344;2022-09-04T07:29:11;1.63;;;1.50;;
16770;SDS011;8503;52.472;13.344;2022-09-04T07:30:49;2.28;;;1.77;;
16770;SDS011;8503;52.472;13.344;2022-09-04T07:32:17;2.70;;;1.70;;
16770;SDS011;8503;52.472;13.344;2022-09-04T07:33:47;2.17;;;1.80;;
16770;SDS011;8503;52.472;13.344;2022-09-04T07:35:15;2.13;;;1.80;;
16770;SDS011;8503;52.472;13.344;2022-09-04T07:36:41;2.90;;;1.80;;
16770;SDS011;8503;52.472;13.344;2022-09-04T07:38:13;2.03;;;1.48;;
16770;SDS011;8503;52.472;13.344;2022-09-04T07:39:42;3.45;;;1.60;;
16770;SDS011;8503;52.472;13.344;2022-09-04T07:41:12;2.08;;;1.65;;
16770;SDS011;8503;52.472;13.344;2022-09-04T07:42:40;3.05;;;1.70;;
16770;SDS011;8503;52.472;13.344;2022-09-04T07:44:12;2.85;;;1.52;;
16770;SDS011;8503;52.472;13.344;2022-09-04T07:45:40;4.30;;;1.77;;
16770;SDS011;8503;52.472;13.344;2022-09-04T07:47:09;3.65;;;1.50;;
16770;SDS011;8503;52.472;13.344;2022-09-04T07:48:35;6.53;;;1.95;;
16770;SDS011;8503;52.472;13.344;2022-09-04T07:50:02;2.30;;;1.60;;
16770;SDS011;8503;52.472;13.344;2022-09-04T07:51:31;2.20;;;1.67;;
16770;SDS011;8503;52.472;13.344;2022-09-04T07:53:00;3.78;;;1.77;;
16770;SDS011;8503;52.472;13.344;2022-09-04T07:54:34;4.18;;;1.90;;
16770;SDS011;8503;52.472;13.344;2022-09-04T07:56:10;3.17;;;1.92;;
16770;SDS011;8503;52.472;13.344;2022-09-04T07:57:46;1.95;;;1.55;;
16770;SDS011;8503;52.472;13.344;2022-09-04T07:59:38;3.72;;;1.52;;
16770;SDS011;8503;52.472;13.344;2022-09-04T08:01:28;2.30;;;1.75;;
16770;SDS011;8503;52.472;13.344;2022-09-04T08:05:04;3.63;;;1.85;;
16770;SDS011;8503;52.472;13.344;2022-09-04T08:06:48;3.63;;;2.03;;
16770;SDS011;8503;52.472;13.344;2022-09-04T08:08:26;2.28;;;1.80;;
16770;SDS011;8503;52.472;13.344;2022-09-04T08:10:15;2.13;;;1.92;;
16770;SDS011;8503;52.472;13.344;2022-09-04T08:11:47;3.85;;;1.83;;
16770;SDS011;8503;52.472;13.344;2022-09-04T08:13:36;1.85;;;1.50;;
16770;SDS011;8503;52.472;13.344;2022-09-04T08:15:27;4.00;;;1.90;;
16770;SDS011;8503;52.472;13.344;2022-09-04T08:17:17;2.55;;;1.80;;
16770;SDS011;8503;52.472;13.344;2022-09-04T08:19:09;1.70;;;1.55;;
16770;SDS011;8503;52.472;13.344;2022-09-04T08:20:41;2.90;;;1.80;;
16770;SDS011;8503;52.472;13.344;2022-09-04T08:22:08;4.05;;;1.90;;
16770;SDS011;8503;52.472;13.344;2022-09-04T08:23:38;3.28;;;2.10;;
16770;SDS011;8503;52.472;13.344;2022-09-04T08:25:19;4.13;;;1.95;;
16770;SDS011;8503;52.472;13.344;2022-09-04T08:26:49;4.22;;;1.90;;
16770;SDS011;8503;52.472;13.344;2022-09-04T08:28:25;3.53;;;1.98;;
16770;SDS011;8503;52.472;13.344;2022-09-04T08:30:07;4.53;;;2.40;;
16770;SDS011;8503;52.472;13.344;2022-09-04T08:31:30;4.35;;;2.20;;
16770;SDS011;8503;52.472;13.344;2022-09-04T08:34:58;2.58;;;1.80;;
16770;SDS011;8503;52.472;13.344;2022-09-04T08:36:29;5.28;;;2.03;;
16770;SDS011;8503;52.472;13.344;2022-09-04T08:38:00;4.22;;;1.70;;
16770;SDS011;8503;52.472;13.344;2022-09-04T08:39:32;5.65;;;1.92;;
16770;SDS011;8503;52.472;13.344;2022-09-04T08:41:17;4.15;;;1.95;;
16770;SDS011;8503;52.472;13.344;2022-09-04T08:43:17;2.25;;;1.83;;
16770;SDS011;8503;52.472;13.344;2022-09-04T08:47:06;2.95;;;1.90;;
16770;SDS011;8503;52.472;13.344;2022-09-04T08:48:44;3.22;;;1.88;;
16770;SDS011;8503;52.472;13.344;2022-09-04T08:50:44;3.50;;;2.05;;
16770;SDS011;8503;52.472;13.344;2022-09-04T08:54:50;1.77;;;1.67;;
16770;SDS011;8503;52.472;13.344;2022-09-04T08:56:29;1.83;;;1.73;;
16770;SDS011;8503;52.472;13.344;2022-09-04T08:58:03;4.93;;;2.35;;
16770;SDS011;8503;52.472;13.344;2022-09-04T09:08:04;2.30;;;1.85;;
16770;SDS011;8503;52.472;13.344;2022-09-04T09:09:47;2.60;;;1.67;;
16770;SDS011;8503;52.472;13.344;2022-09-04T09:11:49;3.42;;;2.08;;
16770;SDS011;8503;52.472;13.344;2022-09-04T09:15:47;2.45;;;1.63;;
16770;SDS011;8503;52.472;13.344;2022-09-04T09:17:23;3.22;;;1.98;;
16770;SDS011;8503;52.472;13.344;2022-09-04T09:19:04;2.85;;;1.80;;
16770;SDS011;8503;52.472;13.344;2022-09-04T09:20:46;4.30;;;1.52;;
16770;SDS011;8503;52.472;13.344;2022-09-04T09:22:27;2.17;;;1.80;;
16770;SDS011;8503;52.472;13.344;2022-09-04T09:24:11;1.85;;;1.65;;
16770;SDS011;8503;52.472;13.344;2022-09-04T09:25:59;4.45;;;1.90;;
16770;SDS011;8503;52.472;13.344;2022-09-04T09:27:49;2.05;;;1.80;;
16770;SDS011;8503;52.472;13.344;2022-09-04T09:33:34;2.10;;;1.90;;
16770;SDS011;8503;52.472;13.344;2022-09-04T09:35:35;2.38;;;1.63;;
16770;SDS011;8503;52.472;13.344;2022-09-04T09:37:32;2.15;;;1.80;;
16770;SDS011;8503;52.472;13.344;2022-09-04T09:39:44;3.75;;;1.50;;
16770;SDS011;8503;52.472;13.344;2022-09-04T09:47:35;1.63;;;1.42;;
16770;SDS011;8503;52.472;13.344;2022-09-04T09:51:18;3.83;;;1.63;;
16770;SDS011;8503;52.472;13.344;2022-09-04T09:55:05;1.75;;;1.33;;
16770;SDS011;8503;52.472;13.344;2022-09-04T10:00:33;1.75;;;1.55;;
16770;SDS011;8503;52.472;13.344;2022-09-04T10:04:02;1.67;;;1.20;;
16770;SDS011;8503;52.472;13.344;2022-09-04T10:12:23;1.77;;;1.50;;
16770;SDS011;8503;52.472;13.344;2022-09-04T10:14:22;5.32;;;1.58;;
16770;SDS011;8503;52.472;13.344;2022-09-04T10:18:25;3.33;;;1.73;;
16770;SDS011;8503;52.472;13.344;2022-09-04T10:20:15;1.50;;;1.40;;
16770;SDS011;8503;52.472;13.344;2022-09-04T10:22:05;2.45;;;1.70;;
16770;SDS011;8503;52.472;13.344;2022-09-04T10:25:59;3.83;;;1.60;;
16770;SDS011;8503;52.472;13.344;2022-09-04T10:27:51;1.90;;;1.70;;
16770;SDS011;8503;52.472;13.344;2022-09-04T10:29:39;2.95;;;1.38;;
16770;SDS011;8503;52.472;13.344;2022-09-04T10:31:28;2.53;;;1.58;;
16770;SDS011;8503;52.472;13.344;2022-09-04T10:33:15;11.98;;;1.70;;
16770;SDS011;8503;52.472;13.344;2022-09-04T10:34:54;3.90;;;1.50;;
16770;SDS011;8503;52.472;13.344;2022-09-04T10:36:25;2.78;;;1.58;;
16770;SDS011;8503;52.472;13.344;2022-09-04T10:38:07;2.50;;;1.60;;
16770;SDS011;8503;52.472;13.344;2022-09-04T10:39:45;1.67;;;1.58;;
16770;SDS011;8503;52.472;13.344;2022-09-04T10:41:42;2.42;;;1.65;;
16770;SDS011;8503;52.472;13.344;2022-09-04T10:43:21;1.67;;;1.58;;
16770;SDS011;8503;52.472;13.344;2022-09-04T10:44:52;2.20;;;1.90;;
16770;SDS011;8503;52.472;13.344;2022-09-04T10:46:33;2.20;;;1.50;;
16770;SDS011;8503;52.472;13.344;2022-09-04T10:49:53;4.85;;;1.75;;
16770;SDS011;8503;52.472;13.344;2022-09-04T10:51:35;2.15;;;1.70;;
16770;SDS011;8503;52.472;13.344;2022-09-04T10:53:27;3.80;;;2.20;;
16770;SDS011;8503;52.472;13.344;2022-09-04T10:57:00;2.83;;;1.40;;
16770;SDS011;8503;52.472;13.344;2022-09-04T11:00:18;4.40;;;1.73;;